PWSweather.com
Personal Weather Stations
Station Observations

SkegnessGB

Lat: 53.147585, Lon: 0.345774

Elevation: 18

Station Type: Fine Offset WH3080

http://www.skegnessweather.info/

High Low Average
Temperature 48.6°F9.2°C 38.8°F3.8°C 42.0°F5.6°C
Dew Point 45.9°F7.7°C 38.6°F3.7°C 40.7°F4.8°C
Winds 6.2 mph 10.0 kmh Calm Calm 2.0 mph E3.2 kmh E
Wind Gusts 10.8 mph17.4 kmh -- 3.0 mph4.8 kmh
Humidity 100% 83% 95%
Pressure 29.37 in994.6 mb 29.18 in988.1 mb -
Precipitation 0.00 in0.0 mm - -
Hour Temp Dew Point Humidity Winds Wind Gusts Pressure Precip Precip Rate Daily Precip Total
12:00 AM 42.6°F5.9°C 42.6°F5.9°C 100% 1.2 mph SSE1.9 kmh SSE 2.5 mph4.0 kmh 29.37 in994.6 mb 0.00 in0.0 mm 0.00 in0.0 mm 0.00 in0.0 mm
12:10 AM 42.4°F5.8°C 42.4°F5.8°C 100% 1.3 mph SSE2.1 kmh SSE 2.5 mph4.0 kmh 29.37 in994.6 mb 0.00 in0.0 mm 0.00 in0.0 mm 0.00 in0.0 mm
12:20 AM 42.1°F5.6°C 42.1°F5.6°C 100% 0.5 mph S0.8 kmh S 1.7 mph2.7 kmh 29.37 in994.6 mb 0.00 in0.0 mm 0.00 in0.0 mm 0.00 in0.0 mm
12:30 AM 41.9°F5.5°C 41.9°F5.5°C 100% 0.9 mph SSE1.4 kmh SSE 2.5 mph4.0 kmh 29.36 in994.2 mb 0.00 in0.0 mm 0.00 in0.0 mm 0.00 in0.0 mm
12:40 AM 41.5°F5.3°C 41.5°F5.3°C 100% Calm Calm 0.7 mph1.1 kmh 29.36 in994.2 mb 0.00 in0.0 mm 0.00 in0.0 mm 0.00 in0.0 mm
12:50 AM 40.8°F4.9°C 40.8°F4.9°C 100% Calm Calm 0.7 mph1.1 kmh 29.36 in994.2 mb 0.00 in0.0 mm 0.00 in0.0 mm 0.00 in0.0 mm
01:00 AM 40.5°F4.7°C 40.5°F4.7°C 100% Calm Calm 0.7 mph1.1 kmh 29.36 in994.2 mb 0.00 in0.0 mm 0.00 in0.0 mm 0.00 in0.0 mm
01:10 AM 40.3°F4.6°C 40.3°F4.6°C 100% Calm Calm 0.7 mph1.1 kmh 29.36 in994.2 mb 0.00 in0.0 mm 0.00 in0.0 mm 0.00 in0.0 mm
01:20 AM 40.1°F4.5°C 40.1°F4.5°C 100% Calm Calm 0.7 mph1.1 kmh 29.36 in994.2 mb 0.00 in0.0 mm 0.00 in0.0 mm 0.00 in0.0 mm
01:30 AM 40.3°F4.6°C 40.3°F4.6°C 100% 0.4 mph S0.6 kmh S 1.7 mph2.7 kmh 29.37 in994.6 mb 0.00 in0.0 mm 0.00 in0.0 mm 0.00 in0.0 mm
01:40 AM 40.6°F4.8°C 40.6°F4.8°C 100% 1.0 mph S1.6 kmh S 2.5 mph4.0 kmh 29.37 in994.6 mb 0.00 in0.0 mm 0.00 in0.0 mm 0.00 in0.0 mm
01:50 AM 41.0°F5.0°C 41.0°F5.0°C 100% 3.1 mph S5.0 kmh S 3.4 mph5.5 kmh 29.37 in994.6 mb 0.00 in0.0 mm 0.00 in0.0 mm 0.00 in0.0 mm
02:00 AM 41.2°F5.1°C 41.2°F5.1°C 100% 3.8 mph S6.1 kmh S 4.2 mph6.8 kmh 29.37 in994.6 mb 0.00 in0.0 mm 0.00 in0.0 mm 0.00 in0.0 mm
02:10 AM 41.0°F5.0°C 41.0°F5.0°C 100% 2.5 mph S4.0 kmh S 4.2 mph6.8 kmh 29.37 in994.6 mb 0.00 in0.0 mm 0.00 in0.0 mm 0.00 in0.0 mm
02:20 AM 40.5°F4.7°C 40.5°F4.7°C 100% 0.4 mph WSW0.6 kmh WSW 1.7 mph2.7 kmh 29.36 in994.2 mb 0.00 in0.0 mm 0.00 in0.0 mm 0.00 in0.0 mm
02:30 AM 40.3°F4.6°C 40.3°F4.6°C 100% 0.5 mph SW0.8 kmh SW 1.7 mph2.7 kmh 29.36 in994.2 mb 0.00 in0.0 mm 0.00 in0.0 mm 0.00 in0.0 mm
02:40 AM 40.5°F4.7°C 40.5°F4.7°C 100% 2.6 mph S4.2 kmh S 2.5 mph4.0 kmh 29.36 in994.2 mb 0.00 in0.0 mm 0.00 in0.0 mm 0.00 in0.0 mm
02:50 AM 40.5°F4.7°C 40.5°F4.7°C 100% 0.7 mph SSW1.1 kmh SSW 2.5 mph4.0 kmh 29.36 in994.2 mb 0.00 in0.0 mm 0.00 in0.0 mm 0.00 in0.0 mm
03:00 AM 40.3°F4.6°C 40.3°F4.6°C 100% 0.7 mph S1.1 kmh S 1.7 mph2.7 kmh 29.36 in994.2 mb 0.00 in0.0 mm 0.00 in0.0 mm 0.00 in0.0 mm
03:10 AM 40.5°F4.7°C 40.5°F4.7°C 100% 0.5 mph SE0.8 kmh SE 3.4 mph5.5 kmh 29.36 in994.2 mb 0.00 in0.0 mm 0.00 in0.0 mm 0.00 in0.0 mm
03:20 AM 40.6°F4.8°C 40.6°F4.8°C 100% 2.6 mph S4.2 kmh S 3.4 mph5.5 kmh 29.36 in994.2 mb 0.00 in0.0 mm 0.00 in0.0 mm 0.00 in0.0 mm
03:30 AM 40.6°F4.8°C 40.6°F4.8°C 100% 2.6 mph SSW4.2 kmh SSW 2.5 mph4.0 kmh 29.36 in994.2 mb 0.00 in0.0 mm 0.00 in0.0 mm 0.00 in0.0 mm
03:40 AM 40.5°F4.7°C 40.5°F4.7°C 100% 3.3 mph SSE5.3 kmh SSE 3.4 mph5.5 kmh 29.36 in994.2 mb 0.00 in0.0 mm 0.00 in0.0 mm 0.00 in0.0 mm
03:50 AM 40.3°F4.6°C 40.3°F4.6°C 100% 0.4 mph SSE0.6 kmh SSE 1.7 mph2.7 kmh 29.36 in994.2 mb 0.00 in0.0 mm 0.00 in0.0 mm 0.00 in0.0 mm
04:00 AM 40.1°F4.5°C 40.1°F4.5°C 100% 0.7 mph SSE1.1 kmh SSE 1.7 mph2.7 kmh 29.35 in993.9 mb 0.00 in0.0 mm 0.00 in0.0 mm 0.00 in0.0 mm
04:10 AM 40.3°F4.6°C 40.3°F4.6°C 100% 0.8 mph S1.3 kmh S 2.5 mph4.0 kmh 29.34 in993.6 mb 0.00 in0.0 mm 0.00 in0.0 mm 0.00 in0.0 mm
04:20 AM 40.5°F4.7°C 40.5°F4.7°C 100% 0.4 mph S0.6 kmh S 1.7 mph2.7 kmh 29.33 in993.2 mb 0.00 in0.0 mm 0.00 in0.0 mm 0.00 in0.0 mm
04:30 AM 40.5°F4.7°C 40.5°F4.7°C 100% 0.4 mph S0.6 kmh S 0.7 mph1.1 kmh 29.33 in993.2 mb 0.00 in0.0 mm 0.00 in0.0 mm 0.00 in0.0 mm
04:40 AM 40.3°F4.6°C 40.3°F4.6°C 100% 0.1 mph S0.2 kmh S 1.7 mph2.7 kmh 29.33 in993.2 mb 0.00 in0.0 mm 0.00 in0.0 mm 0.00 in0.0 mm
04:50 AM 40.1°F4.5°C 40.1°F4.5°C 100% 0.1 mph S0.2 kmh S 1.7 mph2.7 kmh 29.33 in993.2 mb 0.00 in0.0 mm 0.00 in0.0 mm 0.00 in0.0 mm
05:00 AM 40.3°F4.6°C 40.3°F4.6°C 100% 0.6 mph SE1.0 kmh SE 1.7 mph2.7 kmh 29.33 in993.2 mb 0.00 in0.0 mm 0.00 in0.0 mm 0.00 in0.0 mm
05:10 AM 40.1°F4.5°C 40.1°F4.5°C 100% Calm Calm -- 29.32 in992.9 mb 0.00 in0.0 mm 0.00 in0.0 mm 0.00 in0.0 mm
05:20 AM 39.9°F4.4°C 39.9°F4.4°C 100% Calm Calm -- 29.32 in992.9 mb 0.00 in0.0 mm 0.00 in0.0 mm 0.00 in0.0 mm
05:30 AM 40.1°F4.5°C 40.1°F4.5°C 100% 0.4 mph SE0.6 kmh SE 0.7 mph1.1 kmh 29.32 in992.9 mb 0.00 in0.0 mm 0.00 in0.0 mm 0.00 in0.0 mm
05:40 AM 40.1°F4.5°C 40.1°F4.5°C 100% Calm Calm 0.7 mph1.1 kmh 29.32 in992.9 mb 0.00 in0.0 mm 0.00 in0.0 mm 0.00 in0.0 mm
05:50 AM 39.9°F4.4°C 39.9°F4.4°C 100% 0.1 mph NE0.2 kmh NE 1.7 mph2.7 kmh 29.32 in992.9 mb 0.00 in0.0 mm 0.00 in0.0 mm 0.00 in0.0 mm
06:00 AM 39.7°F4.3°C 39.7°F4.3°C 100% Calm Calm 0.7 mph1.1 kmh 29.32 in992.9 mb 0.00 in0.0 mm 0.00 in0.0 mm 0.00 in0.0 mm
06:10 AM 39.4°F4.1°C 39.4°F4.1°C 100% 0.1 mph NE0.2 kmh NE 0.7 mph1.1 kmh 29.32 in992.9 mb 0.00 in0.0 mm 0.00 in0.0 mm 0.00 in0.0 mm
06:20 AM 39.2°F4.0°C 39.2°F4.0°C 100% Calm Calm -- 29.31 in992.6 mb 0.00 in0.0 mm 0.00 in0.0 mm 0.00 in0.0 mm
06:30 AM 39.0°F3.9°C 39.0°F3.9°C 100% Calm Calm 0.7 mph1.1 kmh 29.31 in992.6 mb 0.00 in0.0 mm 0.00 in0.0 mm 0.00 in0.0 mm
06:40 AM 38.8°F3.8°C 38.8°F3.8°C 100% Calm Calm 0.7 mph1.1 kmh 29.31 in992.6 mb 0.00 in0.0 mm 0.00 in0.0 mm 0.00 in0.0 mm
06:50 AM 38.8°F3.8°C 38.8°F3.8°C 100% Calm Calm -- 29.31 in992.6 mb 0.00 in0.0 mm 0.00 in0.0 mm 0.00 in0.0 mm
07:00 AM 39.2°F4.0°C 39.2°F4.0°C 100% Calm Calm 0.7 mph1.1 kmh 29.31 in992.6 mb 0.00 in0.0 mm 0.00 in0.0 mm 0.00 in0.0 mm
07:10 AM 39.6°F4.2°C 39.6°F4.2°C 100% 0.1 mph SSW0.2 kmh SSW 0.7 mph1.1 kmh 29.31 in992.6 mb 0.00 in0.0 mm 0.00 in0.0 mm 0.00 in0.0 mm
07:20 AM 39.7°F4.3°C 39.7°F4.3°C 100% 0.7 mph SSE1.1 kmh SSE 1.7 mph2.7 kmh 29.31 in992.6 mb 0.00 in0.0 mm 0.00 in0.0 mm 0.00 in0.0 mm
07:30 AM 40.1°F4.5°C 40.1°F4.5°C 100% 1.8 mph S2.9 kmh S 2.5 mph4.0 kmh 29.31 in992.6 mb 0.00 in0.0 mm 0.00 in0.0 mm 0.00 in0.0 mm
07:40 AM 40.5°F4.7°C 40.5°F4.7°C 100% 0.2 mph N0.3 kmh N 1.7 mph2.7 kmh 29.30 in992.2 mb 0.00 in0.0 mm 0.00 in0.0 mm 0.00 in0.0 mm
07:50 AM 40.6°F4.8°C 40.6°F4.8°C 100% Calm Calm 0.7 mph1.1 kmh 29.31 in992.6 mb 0.00 in0.0 mm 0.00 in0.0 mm 0.00 in0.0 mm
08:00 AM 40.6°F4.8°C 40.6°F4.8°C 100% Calm Calm 0.7 mph1.1 kmh 29.31 in992.6 mb 0.00 in0.0 mm 0.00 in0.0 mm 0.00 in0.0 mm
08:10 AM 40.3°F4.6°C 40.3°F4.6°C 100% 0.8 mph NNE1.3 kmh NNE 1.7 mph2.7 kmh 29.31 in992.6 mb 0.00 in0.0 mm 0.00 in0.0 mm 0.00 in0.0 mm
08:20 AM 40.3°F4.6°C 40.3°F4.6°C 100% 0.7 mph NNE1.1 kmh NNE 1.7 mph2.7 kmh 29.31 in992.6 mb 0.00 in0.0 mm 0.00 in0.0 mm 0.00 in0.0 mm
08:30 AM 40.6°F4.8°C 40.6°F4.8°C 100% 0.3 mph WNW0.5 kmh WNW 1.7 mph2.7 kmh 29.31 in992.6 mb 0.00 in0.0 mm 0.00 in0.0 mm 0.00 in0.0 mm
08:40 AM 41.0°F5.0°C 41.0°F5.0°C 100% 0.3 mph NE0.5 kmh NE 1.7 mph2.7 kmh 29.31 in992.6 mb 0.00 in0.0 mm 0.00 in0.0 mm 0.00 in0.0 mm
08:50 AM 41.4°F5.2°C 41.4°F5.2°C 100% 0.2 mph N0.3 kmh N 1.7 mph2.7 kmh 29.31 in992.6 mb 0.00 in0.0 mm 0.00 in0.0 mm 0.00 in0.0 mm
09:00 AM 41.5°F5.3°C 41.5°F5.3°C 100% 0.8 mph NNE1.3 kmh NNE 1.7 mph2.7 kmh 29.31 in992.6 mb 0.00 in0.0 mm 0.00 in0.0 mm 0.00 in0.0 mm
09:10 AM 41.7°F5.4°C 41.7°F5.4°C 100% 1.2 mph N1.9 kmh N 1.7 mph2.7 kmh 29.30 in992.2 mb 0.00 in0.0 mm 0.00 in0.0 mm 0.00 in0.0 mm
09:20 AM 42.3°F5.7°C 42.3°F5.7°C 100% 2.2 mph NNE3.5 kmh NNE 3.4 mph5.5 kmh 29.30 in992.2 mb 0.00 in0.0 mm 0.00 in0.0 mm 0.00 in0.0 mm
09:30 AM 43.0°F6.1°C 42.7°F5.9°C 99% 1.5 mph N2.4 kmh N 2.5 mph4.0 kmh 29.30 in992.2 mb 0.00 in0.0 mm 0.00 in0.0 mm 0.00 in0.0 mm
09:40 AM 43.5°F6.4°C 43.3°F6.3°C 99% 0.9 mph N1.4 kmh N 1.7 mph2.7 kmh 29.30 in992.2 mb 0.00 in0.0 mm 0.00 in0.0 mm 0.00 in0.0 mm
09:50 AM 44.2°F6.8°C 44.2°F6.8°C 100% 1.8 mph NE2.9 kmh NE 3.4 mph5.5 kmh 29.30 in992.2 mb 0.00 in0.0 mm 0.00 in0.0 mm 0.00 in0.0 mm
10:00 AM 44.8°F7.1°C 44.8°F7.1°C 100% 2.3 mph N3.7 kmh N 4.2 mph6.8 kmh 29.30 in992.2 mb 0.00 in0.0 mm 0.00 in0.0 mm 0.00 in0.0 mm
10:10 AM 45.5°F7.5°C 45.5°F7.5°C 100% 3.3 mph NE5.3 kmh NE 4.2 mph6.8 kmh 29.29 in991.9 mb 0.00 in0.0 mm 0.00 in0.0 mm 0.00 in0.0 mm
10:20 AM 45.9°F7.7°C 45.9°F7.7°C 100% 3.0 mph N4.8 kmh N 4.2 mph6.8 kmh 29.30 in992.2 mb 0.00 in0.0 mm 0.00 in0.0 mm 0.00 in0.0 mm
10:30 AM 45.0°F7.2°C 44.7°F7.1°C 99% 4.1 mph N6.6 kmh N 4.9 mph7.9 kmh 29.29 in991.9 mb 0.00 in0.0 mm 0.00 in0.0 mm 0.00 in0.0 mm
10:40 AM 44.6°F7.0°C 44.1°F6.7°C 98% 2.8 mph N4.5 kmh N 3.4 mph5.5 kmh 29.29 in991.9 mb 0.00 in0.0 mm 0.00 in0.0 mm 0.00 in0.0 mm
10:50 AM 44.2°F6.8°C 43.4°F6.3°C 97% 2.5 mph N4.0 kmh N 3.4 mph5.5 kmh 29.29 in991.9 mb 0.00 in0.0 mm 0.00 in0.0 mm 0.00 in0.0 mm
11:00 AM 42.8°F6.0°C 41.7°F5.4°C 96% 4.6 mph NNE7.4 kmh NNE 4.9 mph7.9 kmh 29.29 in991.9 mb 0.00 in0.0 mm 0.00 in0.0 mm 0.00 in0.0 mm
11:10 AM 43.0°F6.1°C 41.6°F5.3°C 95% 3.6 mph NE5.8 kmh NE 4.2 mph6.8 kmh 29.29 in991.9 mb 0.00 in0.0 mm 0.00 in0.0 mm 0.00 in0.0 mm
11:20 AM 45.0°F7.2°C 43.9°F6.6°C 96% 2.8 mph N4.5 kmh N 4.9 mph7.9 kmh 29.28 in991.5 mb 0.00 in0.0 mm 0.00 in0.0 mm 0.00 in0.0 mm
11:30 AM 46.8°F8.2°C 45.4°F7.4°C 95% 3.2 mph N5.1 kmh N 4.9 mph7.9 kmh 29.29 in991.9 mb 0.00 in0.0 mm 0.00 in0.0 mm 0.00 in0.0 mm
11:40 AM 46.4°F8.0°C 44.5°F6.9°C 93% 3.5 mph NNE5.6 kmh NNE 4.9 mph7.9 kmh 29.28 in991.5 mb 0.00 in0.0 mm 0.00 in0.0 mm 0.00 in0.0 mm
11:50 AM 47.3°F8.5°C 45.1°F7.3°C 92% 4.6 mph NE7.4 kmh NE 4.9 mph7.9 kmh 29.28 in991.5 mb 0.00 in0.0 mm 0.00 in0.0 mm 0.00 in0.0 mm
12:00 PM 48.6°F9.2°C 45.5°F7.5°C 89% 4.0 mph N6.4 kmh N 4.2 mph6.8 kmh 29.28 in991.5 mb 0.00 in0.0 mm 0.00 in0.0 mm 0.00 in0.0 mm
12:10 PM 46.4°F8.0°C 42.7°F5.9°C 87% 5.0 mph NNE8.0 kmh NNE 4.2 mph6.8 kmh 29.27 in991.2 mb 0.00 in0.0 mm 0.00 in0.0 mm 0.00 in0.0 mm
12:20 PM 45.7°F7.6°C 42.6°F5.9°C 89% 3.0 mph NNE4.8 kmh NNE 4.2 mph6.8 kmh 29.27 in991.2 mb 0.00 in0.0 mm 0.00 in0.0 mm 0.00 in0.0 mm
12:30 PM 46.2°F7.9°C 43.7°F6.5°C 91% 3.0 mph N4.8 kmh N 4.2 mph6.8 kmh 29.27 in991.2 mb 0.00 in0.0 mm 0.00 in0.0 mm 0.00 in0.0 mm
12:40 PM 47.1°F8.4°C 44.3°F6.8°C 90% 3.7 mph NNE6.0 kmh NNE 5.9 mph9.5 kmh 29.27 in991.2 mb 0.00 in0.0 mm 0.00 in0.0 mm 0.00 in0.0 mm
12:50 PM 47.3°F8.5°C 43.9°F6.6°C 88% 4.3 mph NNE6.9 kmh NNE 5.9 mph9.5 kmh 29.27 in991.2 mb 0.00 in0.0 mm 0.00 in0.0 mm 0.00 in0.0 mm
01:00 PM 48.4°F9.1°C 44.7°F7.1°C 87% 4.4 mph NNE7.1 kmh NNE 4.9 mph7.9 kmh 29.27 in991.2 mb 0.00 in0.0 mm 0.00 in0.0 mm 0.00 in0.0 mm
01:10 PM 48.6°F9.2°C 43.9°F6.6°C 84% 4.0 mph N6.4 kmh N 4.9 mph7.9 kmh 29.26 in990.9 mb 0.00 in0.0 mm 0.00 in0.0 mm 0.00 in0.0 mm
01:20 PM 47.3°F8.5°C 42.7°F5.9°C 84% 3.0 mph N4.8 kmh N 4.2 mph6.8 kmh 29.26 in990.9 mb 0.00 in0.0 mm 0.00 in0.0 mm 0.00 in0.0 mm
01:30 PM 47.3°F8.5°C 42.7°F5.9°C 84% 2.7 mph NNE4.3 kmh NNE 4.2 mph6.8 kmh 29.26 in990.9 mb 0.00 in0.0 mm 0.00 in0.0 mm 0.00 in0.0 mm
01:40 PM 46.8°F8.2°C 42.2°F5.7°C 84% 3.4 mph N5.5 kmh N 4.9 mph7.9 kmh 29.27 in991.2 mb 0.00 in0.0 mm 0.00 in0.0 mm 0.00 in0.0 mm
01:50 PM 45.7°F7.6°C 41.1°F5.1°C 84% 3.1 mph N5.0 kmh N 3.4 mph5.5 kmh 29.26 in990.9 mb 0.00 in0.0 mm 0.00 in0.0 mm 0.00 in0.0 mm
02:00 PM 46.2°F7.9°C 42.0°F5.6°C 85% 3.8 mph NE6.1 kmh NE 4.2 mph6.8 kmh 29.26 in990.9 mb 0.00 in0.0 mm 0.00 in0.0 mm 0.00 in0.0 mm
02:10 PM 46.6°F8.1°C 42.0°F5.6°C 84% 4.2 mph NNE6.8 kmh NNE 4.9 mph7.9 kmh 29.26 in990.9 mb 0.00 in0.0 mm 0.00 in0.0 mm 0.00 in0.0 mm
02:20 PM 46.4°F8.0°C 41.8°F5.4°C 84% 3.5 mph NE5.6 kmh NE 4.9 mph7.9 kmh 29.25 in990.5 mb 0.00 in0.0 mm 0.00 in0.0 mm 0.00 in0.0 mm
02:30 PM 46.2°F7.9°C 41.3°F5.2°C 83% 4.5 mph NE7.2 kmh NE 4.9 mph7.9 kmh 29.25 in990.5 mb 0.00 in0.0 mm 0.00 in0.0 mm 0.00 in0.0 mm
02:40 PM 46.2°F7.9°C 41.3°F5.2°C 83% 3.8 mph NNE6.1 kmh NNE 4.9 mph7.9 kmh 29.25 in990.5 mb 0.00 in0.0 mm 0.00 in0.0 mm 0.00 in0.0 mm
02:50 PM 45.5°F7.5°C 40.6°F4.8°C 83% 4.2 mph N6.8 kmh N 5.9 mph9.5 kmh 29.25 in990.5 mb 0.00 in0.0 mm 0.00 in0.0 mm 0.00 in0.0 mm
03:00 PM 45.1°F7.3°C 40.3°F4.6°C 83% 3.4 mph N5.5 kmh N 3.4 mph5.5 kmh 29.25 in990.5 mb 0.00 in0.0 mm 0.00 in0.0 mm 0.00 in0.0 mm
03:10 PM 44.8°F7.1°C 40.2°F4.6°C 84% 3.0 mph N4.8 kmh N 3.4 mph5.5 kmh 29.25 in990.5 mb 0.00 in0.0 mm 0.00 in0.0 mm 0.00 in0.0 mm
03:20 PM 44.8°F7.1°C 40.2°F4.6°C 84% 2.1 mph N3.4 kmh N 4.2 mph6.8 kmh 29.25 in990.5 mb 0.00 in0.0 mm 0.00 in0.0 mm 0.00 in0.0 mm
03:30 PM 44.6°F7.0°C 40.1°F4.5°C 84% 2.5 mph N4.0 kmh N 4.2 mph6.8 kmh 29.25 in990.5 mb 0.00 in0.0 mm 0.00 in0.0 mm 0.00 in0.0 mm
03:40 PM 44.6°F7.0°C 40.4°F4.7°C 85% 3.0 mph N4.8 kmh N 4.2 mph6.8 kmh 29.25 in990.5 mb 0.00 in0.0 mm 0.00 in0.0 mm 0.00 in0.0 mm
03:50 PM 44.6°F7.0°C 40.4°F4.7°C 85% 3.1 mph NNE5.0 kmh NNE 3.4 mph5.5 kmh 29.25 in990.5 mb 0.00 in0.0 mm 0.00 in0.0 mm 0.00 in0.0 mm
04:00 PM 44.2°F6.8°C 40.0°F4.4°C 85% 3.5 mph NNE5.6 kmh NNE 4.2 mph6.8 kmh 29.25 in990.5 mb 0.00 in0.0 mm 0.00 in0.0 mm 0.00 in0.0 mm
04:10 PM 44.1°F6.7°C 39.8°F4.3°C 85% 3.1 mph NNE5.0 kmh NNE 3.4 mph5.5 kmh 29.25 in990.5 mb 0.00 in0.0 mm 0.00 in0.0 mm 0.00 in0.0 mm
04:20 PM 43.7°F6.5°C 39.5°F4.2°C 85% 3.2 mph N5.1 kmh N 4.2 mph6.8 kmh 29.24 in990.2 mb 0.00 in0.0 mm 0.00 in0.0 mm 0.00 in0.0 mm
04:30 PM 43.3°F6.3°C 39.4°F4.1°C 86% 3.6 mph N5.8 kmh N 4.9 mph7.9 kmh 29.25 in990.5 mb 0.00 in0.0 mm 0.00 in0.0 mm 0.00 in0.0 mm
04:40 PM 43.0°F6.1°C 39.1°F3.9°C 86% 2.9 mph NE4.7 kmh NE 3.4 mph5.5 kmh 29.24 in990.2 mb 0.00 in0.0 mm 0.00 in0.0 mm 0.00 in0.0 mm
04:50 PM 42.4°F5.8°C 40.6°F4.8°C 93% 4.0 mph NNE6.4 kmh NNE 4.2 mph6.8 kmh 29.25 in990.5 mb 0.00 in0.0 mm 0.00 in0.0 mm 0.00 in0.0 mm
05:00 PM 42.3°F5.7°C 40.4°F4.7°C 93% 3.4 mph N5.5 kmh N 4.2 mph6.8 kmh 29.24 in990.2 mb 0.00 in0.0 mm 0.00 in0.0 mm 0.00 in0.0 mm
05:10 PM 41.9°F5.5°C 40.3°F4.6°C 94% 3.7 mph NE6.0 kmh NE 4.2 mph6.8 kmh 29.24 in990.2 mb 0.00 in0.0 mm 0.00 in0.0 mm 0.00 in0.0 mm
05:20 PM 41.5°F5.3°C 39.9°F4.4°C 94% 3.5 mph NE5.6 kmh NE 4.2 mph6.8 kmh 29.23 in989.8 mb 0.00 in0.0 mm 0.00 in0.0 mm 0.00 in0.0 mm
05:30 PM 41.5°F5.3°C 40.2°F4.6°C 95% 2.9 mph NE4.7 kmh NE 4.2 mph6.8 kmh 29.23 in989.8 mb 0.00 in0.0 mm 0.00 in0.0 mm 0.00 in0.0 mm
05:40 PM 41.4°F5.2°C 40.0°F4.4°C 95% 2.7 mph N4.3 kmh N 3.4 mph5.5 kmh 29.23 in989.8 mb 0.00 in0.0 mm 0.00 in0.0 mm 0.00 in0.0 mm
05:50 PM 41.2°F5.1°C 39.9°F4.4°C 95% 2.6 mph NNE4.2 kmh NNE 3.4 mph5.5 kmh 29.23 in989.8 mb 0.00 in0.0 mm 0.00 in0.0 mm 0.00 in0.0 mm
06:00 PM 40.8°F4.9°C 39.5°F4.2°C 95% 2.7 mph N4.3 kmh N 4.2 mph6.8 kmh 29.24 in990.2 mb 0.00 in0.0 mm 0.00 in0.0 mm 0.00 in0.0 mm
06:10 PM 40.5°F4.7°C 39.1°F3.9°C 95% 2.7 mph N4.3 kmh N 3.4 mph5.5 kmh 29.24 in990.2 mb 0.00 in0.0 mm 0.00 in0.0 mm 0.00 in0.0 mm
06:20 PM 40.3°F4.6°C 39.2°F4.0°C 96% 2.9 mph N4.7 kmh N 3.4 mph5.5 kmh 29.24 in990.2 mb 0.00 in0.0 mm 0.00 in0.0 mm 0.00 in0.0 mm
06:30 PM 39.9°F4.4°C 38.9°F3.8°C 96% 3.1 mph N5.0 kmh N 4.2 mph6.8 kmh 29.24 in990.2 mb 0.00 in0.0 mm 0.00 in0.0 mm 0.00 in0.0 mm
06:40 PM 39.9°F4.4°C 38.9°F3.8°C 96% 2.8 mph NNE4.5 kmh NNE 4.9 mph7.9 kmh 29.24 in990.2 mb 0.00 in0.0 mm 0.00 in0.0 mm 0.00 in0.0 mm
06:50 PM 40.1°F4.5°C 39.1°F3.9°C 96% 2.3 mph N3.7 kmh N 3.4 mph5.5 kmh 29.25 in990.5 mb 0.00 in0.0 mm 0.00 in0.0 mm 0.00 in0.0 mm
07:00 PM 40.3°F4.6°C 39.2°F4.0°C 96% 3.2 mph NNE5.1 kmh NNE 4.2 mph6.8 kmh 29.25 in990.5 mb 0.00 in0.0 mm 0.00 in0.0 mm 0.00 in0.0 mm
07:10 PM 40.3°F4.6°C 39.2°F4.0°C 96% 2.9 mph N4.7 kmh N 4.2 mph6.8 kmh 29.25 in990.5 mb 0.00 in0.0 mm 0.00 in0.0 mm 0.00 in0.0 mm
07:20 PM 40.3°F4.6°C 39.2°F4.0°C 96% 2.7 mph N4.3 kmh N 4.2 mph6.8 kmh 29.24 in990.2 mb 0.00 in0.0 mm 0.00 in0.0 mm 0.00 in0.0 mm
07:30 PM 40.5°F4.7°C 39.4°F4.1°C 96% 2.9 mph N4.7 kmh N 4.2 mph6.8 kmh 29.24 in990.2 mb 0.00 in0.0 mm 0.00 in0.0 mm 0.00 in0.0 mm
07:40 PM 40.5°F4.7°C 39.1°F3.9°C 95% 2.9 mph ENE4.7 kmh ENE 3.4 mph5.5 kmh 29.24 in990.2 mb 0.00 in0.0 mm 0.00 in0.0 mm 0.00 in0.0 mm
07:50 PM 40.5°F4.7°C 39.1°F3.9°C 95% 3.1 mph N5.0 kmh N 4.9 mph7.9 kmh 29.24 in990.2 mb 0.00 in0.0 mm 0.00 in0.0 mm 0.00 in0.0 mm
08:00 PM 40.5°F4.7°C 39.1°F3.9°C 95% 2.4 mph NW3.9 kmh NW 4.9 mph7.9 kmh 29.23 in989.8 mb 0.00 in0.0 mm 0.00 in0.0 mm 0.00 in0.0 mm
08:10 PM 40.5°F4.7°C 39.1°F3.9°C 95% 3.5 mph NE5.6 kmh NE 4.2 mph6.8 kmh 29.24 in990.2 mb 0.00 in0.0 mm 0.00 in0.0 mm 0.00 in0.0 mm
08:20 PM 40.5°F4.7°C 39.1°F3.9°C 95% 2.0 mph NW3.2 kmh NW 4.2 mph6.8 kmh 29.23 in989.8 mb 0.00 in0.0 mm 0.00 in0.0 mm 0.00 in0.0 mm
08:30 PM 40.5°F4.7°C 39.1°F3.9°C 95% 2.3 mph NNW3.7 kmh NNW 3.4 mph5.5 kmh 29.23 in989.8 mb 0.00 in0.0 mm 0.00 in0.0 mm 0.00 in0.0 mm
08:40 PM 40.6°F4.8°C 39.3°F4.1°C 95% 2.4 mph N3.9 kmh N 4.2 mph6.8 kmh 29.23 in989.8 mb 0.00 in0.0 mm 0.00 in0.0 mm 0.00 in0.0 mm
08:50 PM 40.6°F4.8°C 39.3°F4.1°C 95% 2.5 mph NW4.0 kmh NW 3.4 mph5.5 kmh 29.22 in989.5 mb 0.00 in0.0 mm 0.00 in0.0 mm 0.00 in0.0 mm
09:00 PM 40.6°F4.8°C 39.3°F4.1°C 95% 3.1 mph NE5.0 kmh NE 3.4 mph5.5 kmh 29.23 in989.8 mb 0.00 in0.0 mm 0.00 in0.0 mm 0.00 in0.0 mm
09:10 PM 40.3°F4.6°C 39.0°F3.9°C 95% 3.8 mph NE6.1 kmh NE 5.9 mph9.5 kmh 29.23 in989.8 mb 0.00 in0.0 mm 0.00 in0.0 mm 0.00 in0.0 mm
09:20 PM 40.1°F4.5°C 38.8°F3.8°C 95% 1.8 mph WNW2.9 kmh WNW 3.4 mph5.5 kmh 29.22 in989.5 mb 0.00 in0.0 mm 0.00 in0.0 mm 0.00 in0.0 mm
09:30 PM 40.1°F4.5°C 38.8°F3.8°C 95% 2.2 mph NNW3.5 kmh NNW 3.4 mph5.5 kmh 29.23 in989.8 mb 0.00 in0.0 mm 0.00 in0.0 mm 0.00 in0.0 mm
09:40 PM 40.3°F4.6°C 39.0°F3.9°C 95% 2.7 mph NW4.3 kmh NW 4.2 mph6.8 kmh 29.22 in989.5 mb 0.00 in0.0 mm 0.00 in0.0 mm 0.00 in0.0 mm
09:50 PM 40.5°F4.7°C 39.1°F3.9°C 95% 2.5 mph N4.0 kmh N 3.4 mph5.5 kmh 29.22 in989.5 mb 0.00 in0.0 mm 0.00 in0.0 mm 0.00 in0.0 mm
10:00 PM 40.5°F4.7°C 39.1°F3.9°C 95% 3.0 mph NW4.8 kmh NW 4.2 mph6.8 kmh 29.22 in989.5 mb 0.00 in0.0 mm 0.00 in0.0 mm 0.00 in0.0 mm
10:10 PM 40.5°F4.7°C 39.1°F3.9°C 95% 3.9 mph NNW6.3 kmh NNW 4.9 mph7.9 kmh 29.21 in989.2 mb 0.00 in0.0 mm 0.00 in0.0 mm 0.00 in0.0 mm
10:20 PM 40.1°F4.5°C 38.8°F3.8°C 95% 4.4 mph N7.1 kmh N 6.6 mph10.6 kmh 29.21 in989.2 mb 0.00 in0.0 mm 0.00 in0.0 mm 0.00 in0.0 mm
10:30 PM 40.3°F4.6°C 39.0°F3.9°C 95% 4.2 mph NW6.8 kmh NW 5.9 mph9.5 kmh 29.21 in989.2 mb 0.00 in0.0 mm 0.00 in0.0 mm 0.00 in0.0 mm
10:40 PM 40.1°F4.5°C 38.8°F3.8°C 95% 3.8 mph NNW6.1 kmh NNW 4.9 mph7.9 kmh 29.20 in988.8 mb 0.00 in0.0 mm 0.00 in0.0 mm 0.00 in0.0 mm
10:50 PM 39.9°F4.4°C 38.6°F3.7°C 95% 3.3 mph N5.3 kmh N 5.9 mph9.5 kmh 29.20 in988.8 mb 0.00 in0.0 mm 0.00 in0.0 mm 0.00 in0.0 mm
11:00 PM 40.1°F4.5°C 38.8°F3.8°C 95% 4.2 mph N6.8 kmh N 5.9 mph9.5 kmh 29.20 in988.8 mb 0.00 in0.0 mm 0.00 in0.0 mm 0.00 in0.0 mm
11:10 PM 39.9°F4.4°C 38.6°F3.7°C 95% 5.3 mph NE8.5 kmh NE 5.9 mph9.5 kmh 29.20 in988.8 mb 0.00 in0.0 mm 0.00 in0.0 mm 0.00 in0.0 mm
11:20 PM 39.9°F4.4°C 38.6°F3.7°C 95% 4.1 mph NE6.6 kmh NE 5.9 mph9.5 kmh 29.19 in988.5 mb 0.00 in0.0 mm 0.00 in0.0 mm 0.00 in0.0 mm
11:30 PM 40.1°F4.5°C 38.8°F3.8°C 95% 5.7 mph NNE9.2 kmh NNE 8.4 mph13.5 kmh 29.19 in988.5 mb 0.00 in0.0 mm 0.00 in0.0 mm 0.00 in0.0 mm
11:40 PM 40.1°F4.5°C 38.8°F3.8°C 95% 6.2 mph NE10.0 kmh NE 10.8 mph17.4 kmh 29.18 in988.1 mb 0.00 in0.0 mm 0.00 in0.0 mm 0.00 in0.0 mm
11:50 PM 40.1°F4.5°C 38.8°F3.8°C 95% 5.3 mph NNE8.5 kmh NNE 6.6 mph10.6 kmh 29.18 in988.1 mb 0.00 in0.0 mm 0.00 in0.0 mm 0.00 in0.0 mm